createdAt,value
2018-12-06T06:10:06.252Z,12.37
2018-12-06T06:12:37.647Z,10.53
2018-12-06T06:15:12.020Z,9.83
2018-12-06T06:17:43.924Z,13.33
2018-12-06T06:20:15.029Z,10.70
2018-12-06T06:22:44.941Z,11.30
2018-12-06T06:25:15.172Z,10.50
2018-12-06T06:27:44.614Z,12.17
2018-12-06T06:30:14.057Z,14.60
2018-12-06T06:32:43.781Z,15.33
2018-12-06T06:35:13.004Z,14.13
2018-12-06T06:37:41.797Z,13.47
2018-12-06T06:40:11.205Z,10.90
2018-12-06T06:42:39.944Z,11.30
2018-12-06T06:45:09.106Z,12.93
2018-12-06T06:47:37.993Z,9.87
2018-12-06T06:50:07.193Z,11.87
2018-12-06T06:52:36.029Z,7.53
2018-12-06T06:55:05.149Z,8.93
2018-12-06T06:57:34.437Z,8.83
2018-12-06T07:00:03.816Z,8.63
2018-12-06T07:02:32.958Z,7.93
2018-12-06T07:05:01.710Z,7.40
2018-12-06T07:07:31.329Z,9.07
2018-12-06T07:10:00.400Z,6.47
2018-12-06T07:12:29.395Z,7.17
2018-12-06T07:14:58.592Z,6.73
2018-12-06T07:17:27.769Z,10.03
2018-12-06T07:19:57.294Z,8.43
2018-12-06T07:22:26.504Z,6.53
2018-12-06T07:24:55.663Z,6.33
2018-12-06T07:27:25.341Z,5.87
2018-12-06T07:29:54.109Z,7.70
2018-12-06T07:32:23.083Z,6.57
2018-12-06T07:34:52.689Z,6.83
2018-12-06T07:37:21.527Z,5.30
2018-12-06T07:39:50.387Z,6.03
2018-12-06T07:42:19.204Z,6.10
2018-12-06T07:44:48.220Z,3.23
2018-12-06T07:47:17.757Z,5.27
2018-12-06T07:49:46.624Z,5.63
2018-12-06T07:52:15.839Z,5.80
2018-12-06T07:54:44.707Z,5.27
2018-12-06T07:57:13.930Z,7.53
2018-12-06T07:59:44.766Z,6.13
2018-12-06T08:02:13.632Z,6.17
2018-12-06T08:04:42.580Z,4.57
2018-12-06T08:07:11.822Z,6.60
2018-12-06T08:09:41.506Z,6.90
2018-12-06T08:12:10.478Z,6.13
2018-12-06T08:14:39.644Z,5.03
2018-12-06T08:17:08.954Z,4.10
2018-12-06T08:19:38.203Z,4.43
2018-12-06T08:22:07.471Z,6.00
2018-12-06T08:24:37.013Z,7.17
2018-12-06T08:27:05.798Z,6.00
2018-12-06T08:29:34.659Z,9.43
2018-12-06T08:32:03.541Z,9.67
2018-12-06T08:34:32.496Z,6.83
2018-12-06T08:37:01.642Z,5.63
2018-12-06T08:39:30.545Z,2.97
2018-12-06T08:41:59.318Z,3.77
2018-12-06T08:44:28.598Z,5.33
2018-12-06T08:46:57.361Z,4.57
2018-12-06T08:49:26.708Z,3.40
2018-12-06T08:51:55.467Z,6.80
2018-12-06T08:54:24.295Z,4.80
2018-12-06T08:56:53.108Z,11.60
2018-12-06T08:59:22.905Z,6.43
2018-12-06T09:01:51.704Z,4.70
2018-12-06T09:04:20.473Z,6.47
2018-12-06T09:06:49.781Z,6.07
2018-12-06T09:09:19.649Z,5.57
2018-12-06T09:11:49.221Z,4.63
2018-12-06T09:14:17.999Z,6.90
2018-12-06T09:16:47.380Z,7.60
2018-12-06T09:19:16.481Z,5.63
2018-12-06T09:21:45.621Z,7.30
2018-12-06T09:24:14.912Z,8.07
2018-12-06T09:26:44.160Z,2.87
2018-12-06T09:29:12.916Z,5.20
2018-12-06T09:31:41.937Z,3.00
2018-12-06T09:34:10.843Z,4.50
2018-12-06T09:36:40.089Z,5.97
2018-12-06T09:39:10.347Z,8.67
2018-12-06T09:41:39.766Z,8.37
2018-12-06T09:44:08.556Z,5.90
2018-12-06T09:46:38.027Z,10.20
2018-12-06T09:49:07.253Z,8.17
2018-12-06T09:51:36.205Z,5.83
2018-12-06T09:54:05.860Z,7.47
2018-12-06T09:56:35.091Z,7.30
2018-12-06T09:59:04.433Z,7.30
2018-12-06T10:01:33.337Z,3.40
2018-12-06T10:04:02.528Z,4.53
2018-12-06T10:06:31.380Z,5.13
2018-12-06T10:09:00.682Z,7.47
2018-12-06T10:11:29.496Z,6.17
2018-12-06T10:13:58.596Z,12.53
2018-12-06T10:16:27.876Z,5.40
2018-12-06T10:18:57.896Z,11.27
2018-12-06T10:21:27.128Z,12.60
2018-12-06T10:23:56.584Z,28.70
2018-12-06T10:26:26.064Z,108.37
2018-12-06T10:28:54.825Z,63.63
2018-12-06T10:31:23.690Z,105.70
2018-12-06T10:33:53.045Z,116.70
2018-12-06T10:36:22.764Z,6.70
2018-12-06T10:38:51.776Z,7.47
2018-12-06T10:41:21.058Z,5.43
2018-12-06T10:43:50.601Z,7.97
2018-12-06T10:46:23.451Z,12.67
2018-12-06T10:48:52.894Z,8.63
2018-12-06T10:51:33.018Z,6.60
2018-12-06T10:54:02.180Z,12.93
2018-12-06T10:56:31.363Z,9.30
2018-12-06T10:59:00.567Z,8.13
2018-12-06T11:01:34.758Z,9.07
2018-12-06T11:04:03.943Z,9.13
2018-12-06T11:06:33.179Z,6.87
2018-12-06T11:09:02.888Z,9.00
2018-12-06T11:11:32.068Z,15.37
2018-12-06T11:14:01.223Z,5.87
2018-12-06T11:16:30.560Z,8.23
2018-12-06T11:19:00.296Z,4.57
2018-12-06T11:21:28.926Z,6.40
2018-12-06T11:23:58.346Z,5.10
2018-12-06T11:26:28.302Z,8.10
2018-12-06T11:28:57.049Z,9.60
2018-12-06T11:31:26.424Z,12.00
2018-12-06T11:33:55.356Z,8.03
2018-12-06T11:36:24.294Z,6.27
2018-12-06T11:38:53.208Z,9.67
2018-12-06T11:41:22.665Z,8.17
2018-12-06T11:43:52.003Z,7.80
2018-12-06T11:46:21.168Z,9.00
2018-12-06T11:48:50.559Z,4.60
2018-12-06T11:51:19.475Z,5.10
2018-12-06T11:53:48.732Z,7.93
2018-12-06T11:56:17.657Z,11.77
2018-12-06T11:58:46.875Z,4.43
2018-12-06T12:01:15.694Z,7.20
2018-12-06T12:03:44.864Z,4.37
2018-12-06T12:06:14.373Z,5.57
2018-12-06T12:08:44.546Z,6.83
2018-12-06T12:11:13.347Z,7.70
2018-12-06T12:13:42.818Z,12.13
2018-12-06T12:16:12.505Z,6.07
2018-12-06T12:18:41.278Z,3.53
2018-12-06T12:21:10.001Z,9.53
2018-12-06T12:23:39.735Z,9.30
2018-12-06T12:26:08.563Z,5.00
2018-12-06T12:28:38.053Z,5.20
2018-12-06T12:31:07.622Z,7.33
2018-12-06T12:33:37.169Z,8.93
2018-12-06T12:36:06.496Z,6.10
2018-12-06T12:38:35.766Z,4.37
2018-12-06T12:41:04.816Z,5.13
2018-12-06T12:43:33.939Z,5.00
2018-12-06T12:46:02.753Z,5.67
2018-12-06T12:48:31.932Z,4.50
2018-12-06T12:51:01.094Z,4.67
2018-12-06T12:53:30.362Z,9.20
2018-12-06T12:55:59.996Z,4.87
2018-12-06T12:58:29.969Z,6.73
2018-12-06T13:00:59.176Z,3.27
2018-12-06T13:03:27.916Z,7.97
2018-12-06T13:05:57.083Z,9.67
2018-12-06T13:08:26.264Z,7.63
2018-12-06T13:10:55.807Z,10.80
2018-12-06T13:13:25.309Z,14.67
2018-12-06T13:15:54.995Z,6.23
2018-12-06T13:18:24.788Z,5.83
2018-12-06T13:20:54.527Z,9.63
2018-12-06T13:23:23.745Z,3.83
2018-12-06T13:25:53.170Z,11.43
2018-12-06T13:28:22.300Z,4.57
2018-12-06T13:30:51.381Z,3.03
2018-12-06T13:33:20.661Z,10.80
2018-12-06T13:35:49.815Z,5.93
2018-12-06T13:38:19.578Z,6.50
2018-12-06T13:40:48.453Z,5.00
2018-12-06T13:43:18.048Z,4.80
2018-12-06T13:45:47.328Z,4.47
2018-12-06T13:48:16.272Z,4.43
2018-12-06T13:50:45.106Z,4.07
2018-12-06T13:53:14.361Z,5.43
2018-12-06T13:55:43.725Z,6.90
2018-12-06T13:58:13.468Z,4.17
2018-12-06T14:00:42.697Z,6.57
2018-12-06T14:03:12.143Z,9.33
2018-12-06T14:05:42.550Z,21.77
2018-12-06T14:08:11.572Z,7.10
2018-12-06T14:10:40.542Z,9.77
2018-12-06T14:13:10.201Z,3.90
2018-12-06T14:15:39.812Z,5.50
2018-12-06T14:18:08.608Z,6.17
2018-12-06T14:20:38.145Z,5.93
2018-12-06T14:23:07.091Z,10.30
2018-12-06T14:25:36.365Z,9.67
2018-12-06T14:28:06.201Z,11.27
2018-12-06T14:30:35.698Z,8.47
2018-12-06T14:33:05.233Z,6.90
2018-12-06T14:35:34.437Z,5.40
2018-12-06T14:38:03.333Z,6.70
2018-12-06T14:40:32.517Z,8.20
2018-12-06T14:43:02.200Z,9.50
2018-12-06T14:45:31.564Z,6.40
2018-12-06T14:48:01.112Z,4.27
2018-12-06T14:50:30.315Z,6.27
2018-12-06T14:52:59.329Z,5.47
2018-12-06T14:55:28.290Z,4.17
2018-12-06T14:57:57.453Z,6.67
2018-12-06T15:00:27.008Z,6.17
2018-12-06T15:02:56.231Z,7.77
2018-12-06T15:05:25.494Z,6.03
2018-12-06T15:07:54.960Z,3.67
2018-12-06T15:10:24.448Z,5.37
2018-12-06T15:12:53.788Z,7.53
2018-12-06T15:15:23.430Z,4.77
2018-12-06T15:17:52.545Z,4.60
2018-12-06T15:20:22.362Z,7.60
2018-12-06T15:22:52.041Z,7.10
2018-12-06T15:25:21.130Z,6.03
2018-12-06T15:27:50.982Z,6.27
2018-12-06T15:30:20.209Z,6.90
2018-12-06T15:32:49.180Z,4.17
2018-12-06T15:35:18.850Z,4.80
2018-12-06T15:37:47.698Z,5.07
2018-12-06T15:40:16.799Z,4.73
2018-12-06T15:42:46.874Z,2.57
2018-12-06T15:45:15.785Z,4.27
2018-12-06T15:47:45.029Z,4.63
2018-12-06T15:50:13.790Z,5.47
2018-12-06T15:52:42.817Z,3.90
2018-12-06T15:55:12.079Z,2.73
2018-12-06T15:57:41.063Z,3.47
2018-12-06T16:00:12.725Z,3.67
2018-12-06T16:02:42.329Z,4.00
2018-12-06T16:05:11.813Z,3.27
2018-12-06T16:07:41.487Z,5.37
2018-12-06T16:10:11.258Z,2.50
2018-12-06T16:12:40.376Z,3.30
2018-12-06T16:15:09.156Z,4.83
2018-12-06T16:17:38.386Z,6.93
2018-12-06T16:20:09.922Z,6.67
2018-12-06T16:22:39.154Z,4.43
2018-12-06T16:25:08.592Z,4.43
2018-12-06T16:27:37.299Z,4.07
2018-12-06T16:30:07.805Z,2.57
2018-12-06T16:32:36.639Z,3.47
2018-12-06T16:35:05.696Z,4.10
2018-12-06T16:37:35.162Z,2.57
2018-12-06T16:40:05.483Z,4.03
2018-12-06T16:42:34.597Z,5.53
2018-12-06T16:45:03.694Z,4.63
2018-12-06T16:47:32.929Z,2.50
2018-12-06T16:50:01.672Z,5.00
2018-12-06T16:52:30.773Z,7.43
2018-12-06T16:54:59.969Z,3.57
2018-12-06T16:57:29.266Z,5.90
2018-12-06T16:59:58.223Z,7.40
2018-12-06T17:02:27.062Z,8.50
2018-12-06T17:04:56.048Z,6.73
2018-12-06T17:07:25.397Z,6.37
2018-12-06T17:09:54.406Z,5.83
2018-12-06T17:12:23.284Z,5.10
2018-12-06T17:14:52.421Z,5.60
2018-12-06T17:17:21.603Z,5.43
2018-12-06T17:19:51.028Z,6.03
2018-12-06T17:22:20.025Z,5.47
2018-12-06T17:24:48.708Z,6.27
2018-12-06T17:27:18.083Z,8.23
2018-12-06T17:29:47.113Z,12.50
2018-12-06T17:32:16.211Z,9.03
2018-12-06T17:34:45.703Z,8.07
2018-12-06T17:37:15.119Z,8.90
2018-12-06T17:39:44.219Z,4.20
2018-12-06T17:42:12.949Z,6.90
2018-12-06T17:44:41.779Z,5.17
2018-12-06T17:47:10.955Z,3.83
2018-12-06T17:49:40.008Z,5.27
2018-12-06T17:52:09.201Z,5.80
2018-12-06T17:54:37.913Z,8.40
2018-12-06T17:57:06.663Z,5.03
2018-12-06T17:59:35.740Z,4.57
2018-12-06T18:02:04.618Z,5.60
2018-12-06T18:04:33.466Z,5.60
2018-12-06T18:07:02.140Z,6.03
2018-12-06T18:09:30.639Z,5.97
2018-12-06T18:11:59.780Z,5.83
2018-12-06T18:14:29.013Z,10.33
2018-12-06T18:16:57.883Z,7.43
2018-12-06T18:19:27.304Z,8.10
2018-12-06T18:21:56.034Z,7.67
2018-12-06T18:24:25.248Z,10.37
2018-12-06T18:26:54.424Z,2.57
2018-12-06T18:29:23.700Z,11.40
2018-12-06T18:31:52.569Z,3.20
2018-12-06T18:34:21.981Z,4.50
2018-12-06T18:36:50.861Z,4.90
2018-12-06T18:39:19.589Z,4.90
2018-12-06T18:41:48.292Z,3.43
2018-12-06T18:44:17.609Z,5.27
2018-12-06T18:46:46.320Z,5.57
2018-12-06T18:49:16.033Z,3.60
2018-12-06T18:51:44.621Z,3.30
2018-12-06T18:54:13.758Z,4.37
2018-12-06T18:56:42.961Z,3.57
2018-12-06T18:59:11.854Z,3.53
2018-12-06T19:01:40.582Z,6.33
2018-12-06T19:04:09.352Z,4.13
2018-12-06T19:06:43.139Z,5.20
2018-12-06T19:09:12.380Z,5.87
2018-12-06T19:11:41.267Z,6.73
2018-12-06T19:14:10.829Z,7.53
2018-12-06T19:16:40.068Z,10.23
2018-12-06T19:19:09.303Z,10.97
2018-12-06T19:21:38.239Z,8.67
2018-12-06T19:24:08.080Z,13.57
2018-12-06T19:26:38.902Z,10.53
2018-12-06T19:29:08.093Z,14.83
2018-12-06T19:31:36.850Z,13.33
2018-12-06T19:34:05.825Z,11.57
2018-12-06T19:36:35.062Z,14.23
2018-12-06T19:39:04.745Z,18.70
2018-12-06T19:41:34.265Z,17.40
2018-12-06T19:44:03.259Z,12.70
2018-12-06T19:46:32.356Z,9.67
2018-12-06T19:49:01.251Z,13.10
2018-12-06T19:51:30.310Z,13.97
2018-12-06T19:53:59.396Z,11.87
2018-12-06T19:56:28.369Z,13.70
2018-12-06T19:58:57.340Z,19.77
2018-12-06T20:01:26.978Z,18.50
2018-12-06T20:03:56.066Z,15.83
2018-12-06T20:06:25.917Z,12.70
2018-12-06T20:08:55.451Z,13.73
2018-12-06T20:11:25.655Z,12.33
2018-12-06T20:13:56.214Z,21.87
2018-12-06T20:16:25.430Z,17.30
2018-12-06T20:18:54.434Z,17.57
2018-12-06T20:21:24.130Z,27.00
2018-12-06T20:23:53.899Z,26.60
2018-12-06T20:26:23.380Z,26.43
2018-12-06T20:28:52.931Z,25.23
2018-12-06T20:31:22.460Z,15.07
2018-12-06T20:33:51.291Z,29.53
2018-12-06T20:36:20.728Z,12.53
2018-12-06T20:38:50.296Z,17.23
2018-12-06T20:41:19.921Z,17.07
2018-12-06T20:43:49.332Z,13.67
2018-12-06T20:46:18.422Z,16.43
2018-12-06T20:48:47.690Z,9.60
2018-12-06T20:51:16.634Z,12.90
2018-12-06T20:53:45.758Z,12.37
2018-12-06T20:56:15.701Z,26.70
2018-12-06T20:58:44.812Z,20.07
2018-12-06T21:01:13.981Z,20.47
2018-12-06T21:03:43.512Z,24.70
2018-12-06T21:06:12.313Z,14.97
2018-12-06T21:08:41.549Z,19.50
2018-12-06T21:11:11.160Z,12.77
2018-12-06T21:13:40.667Z,18.57
2018-12-06T21:16:09.820Z,15.80
2018-12-06T21:18:39.094Z,18.83
2018-12-06T21:21:08.360Z,9.87
2018-12-06T21:23:37.484Z,15.87
2018-12-06T21:26:06.415Z,17.27
2018-12-06T21:28:35.549Z,9.00
2018-12-06T21:31:05.241Z,21.90
2018-12-06T21:33:35.071Z,17.37
2018-12-06T21:36:04.203Z,15.10
2018-12-06T21:38:33.500Z,20.97
2018-12-06T21:41:02.618Z,21.73
2018-12-06T21:43:32.540Z,11.27
2018-12-06T21:46:01.737Z,10.30
2018-12-06T21:48:31.266Z,9.73
2018-12-06T21:51:00.052Z,12.70
2018-12-06T21:53:29.433Z,10.17
2018-12-06T21:55:58.751Z,11.20
